Time;durP1;ratioP1;P1;durP2;ratioP2;P2;SDS_P1;SDS_P2;PMS_P1;PMS_P2;Temp;Humidity;BMP_temperature;BMP_pressure;BME280_temperature;BME280_humidity;BME280_pressure;Samples;Min_cycle;Max_cycle;Signal;HPM_P1;HPM_P2
2021/12/29 00:00:23;;;;;;;13.43;6.30;;;;;;;8.43;94.79;99688.31;5072455;28;20071;-66
2021/12/29 00:02:50;;;;;;;14.70;6.45;;;;;;;8.38;95.31;99684.47;5089540;28;20071;-65
2021/12/29 00:05:18;;;;;;;15.07;7.10;;;;;;;8.31;96.01;99686.94;5072375;28;20052;-65
2021/12/29 00:07:44;;;;;;;13.07;6.70;;;;;;;8.26;96.35;99689.28;5072840;28;20078;-68
2021/12/29 00:10:12;;;;;;;17.50;6.72;;;;;;;8.36;96.08;99704.97;5070670;28;20059;-64
2021/12/29 00:12:41;;;;;;;19.15;6.65;;;;;;;8.33;95.58;99714.06;5072413;28;20064;-65
2021/12/29 00:15:11;;;;;;;15.73;6.15;;;;;;;8.31;95.82;99712.56;5072139;28;20044;-65
2021/12/29 00:17:42;;;;;;;14.65;6.80;;;;;;;8.35;95.96;99706.78;5087850;28;20040;-67
2021/12/29 00:20:10;;;;;;;14.27;7.30;;;;;;;8.38;95.63;99717.00;5073823;28;20037;-66
2021/12/29 00:22:37;;;;;;;17.17;7.47;;;;;;;8.39;95.26;99728.44;5089513;28;20110;-66
2021/12/29 00:25:05;;;;;;;16.98;7.75;;;;;;;8.38;95.27;99724.94;5072514;28;20043;-66
2021/12/29 00:27:32;;;;;;;13.95;7.03;;;;;;;8.33;95.04;99731.72;5073772;28;20051;-66
2021/12/29 00:29:59;;;;;;;16.48;7.53;;;;;;;8.38;94.85;99732.06;5074571;28;20048;-66
2021/12/29 00:32:45;;;;;;;16.95;7.75;;;;;;;8.45;94.61;99728.59;5068946;28;20128;-66
2021/12/29 00:35:34;;;;;;;18.30;7.85;;;;;;;8.41;94.56;99729.91;5064214;28;20111;-66
2021/12/29 00:38:21;;;;;;;15.70;7.65;;;;;;;8.40;94.56;99743.28;5061852;28;20055;-66
2021/12/29 00:41:07;;;;;;;16.92;7.80;;;;;;;8.45;94.66;99756.88;5072428;28;20140;-64
2021/12/29 00:43:55;;;;;;;20.77;8.57;;;;;;;8.40;94.92;99765.28;5073481;28;20043;-66
2021/12/29 00:46:42;;;;;;;21.70;8.85;;;;;;;8.36;95.47;99778.97;5062246;28;20116;-66
2021/12/29 00:49:08;;;;;;;18.67;8.70;;;;;;;8.43;95.36;99785.28;5052397;28;20040;-66
2021/12/29 00:51:35;;;;;;;14.68;8.20;;;;;;;8.51;95.00;99797.66;5052037;28;20045;-66
2021/12/29 00:54:04;;;;;;;18.38;7.15;;;;;;;8.40;95.42;99804.06;5035707;28;20055;-66
2021/12/29 00:56:31;;;;;;;18.05;8.15;;;;;;;8.39;95.76;99808.53;5053207;28;20049;-66
2021/12/29 00:58:59;;;;;;;15.40;8.73;;;;;;;8.36;95.47;99808.03;5053241;28;20516;-65
2021/12/29 01:01:28;;;;;;;20.77;9.82;;;;;;;8.29;96.09;99817.59;5052819;28;20056;-66
2021/12/29 01:03:56;;;;;;;17.27;8.40;;;;;;;8.32;96.38;99823.38;5071837;28;20049;-66
2021/12/29 01:06:23;;;;;;;18.33;8.13;;;;;;;8.33;96.64;99832.13;5071036;28;20497;-66
2021/12/29 01:08:50;;;;;;;22.65;10.88;;;;;;;8.23;96.83;99819.06;5072003;28;20489;-66
2021/12/29 01:11:17;;;;;;;20.40;11.35;;;;;;;8.29;97.09;99836.91;5072613;28;20493;-66
2021/12/29 01:13:47;;;;;;;21.48;11.20;;;;;;;8.31;96.47;99834.09;5071897;28;20068;-66
2021/12/29 01:16:36;;;;;;;18.10;10.10;;;;;;;8.27;96.70;99833.59;5072908;28;20044;-66
2021/12/29 01:19:14;;;;;;;34.55;17.33;;;;;;;8.32;96.35;99846.34;5053902;28;20056;-66
2021/12/29 01:21:45;;;;;;;41.70;20.35;;;;;;;8.32;96.40;99852.44;5071753;28;20091;-66
2021/12/29 01:24:13;;;;;;;35.65;17.85;;;;;;;8.38;95.70;99853.63;5066001;28;20432;-66
2021/12/29 01:26:42;;;;;;;37.65;18.80;;;;;;;8.39;95.86;99864.03;5052765;28;20107;-65
2021/12/29 01:29:11;;;;;;;36.05;18.92;;;;;;;8.33;95.83;99866.47;5053308;28;20040;-65
2021/12/29 01:31:38;;;;;;;42.97;21.48;;;;;;;8.40;95.92;99871.00;5053039;28;20040;-66
2021/12/29 01:34:05;;;;;;;43.53;23.05;;;;;;;8.33;96.15;99869.97;5051077;28;20041;-66
2021/12/29 01:36:34;;;;;;;38.58;20.83;;;;;;;8.35;96.33;99878.56;5051377;28;20068;-66
2021/12/29 01:39:04;;;;;;;45.30;22.77;;;;;;;8.39;96.68;99890.47;5051691;28;20140;-66
2021/12/29 01:41:31;;;;;;;35.75;19.88;;;;;;;8.31;96.49;99892.25;5052543;28;20067;-66
2021/12/29 01:43:58;;;;;;;37.60;20.45;;;;;;;8.38;96.71;99902.00;5052683;28;20393;-66
2021/12/29 01:46:25;;;;;;;42.95;23.65;;;;;;;8.33;96.44;99906.13;5052423;28;20045;-66
2021/12/29 01:48:52;;;;;;;34.13;19.58;;;;;;;8.34;96.74;99918.34;5051413;28;20036;-66
2021/12/29 01:51:20;;;;;;;38.42;20.83;;;;;;;8.41;96.49;99922.84;5051632;28;20051;-66
2021/12/29 01:54:00;;;;;;;38.65;21.45;;;;;;;8.39;96.71;99930.09;5052718;28;20033;-66
2021/12/29 01:56:29;;;;;;;38.22;21.15;;;;;;;8.51;96.45;99933.31;5052536;28;20045;-66
2021/12/29 01:58:56;;;;;;;32.53;18.65;;;;;;;8.49;96.27;99937.94;5051498;28;20436;-66
2021/12/29 02:01:24;;;;;;;34.75;19.98;;;;;;;8.45;96.00;99942.69;5052842;28;20232;-66
2021/12/29 02:03:55;;;;;;;35.28;19.08;;;;;;;8.41;96.17;99943.97;5072174;28;20048;-66
2021/12/29 02:06:22;;;;;;;36.80;20.40;;;;;;;8.38;96.69;99961.97;5072227;28;20047;-66
2021/12/29 02:08:49;;;;;;;35.08;20.00;;;;;;;8.38;96.72;99962.78;5070344;28;20037;-66
2021/12/29 02:11:16;;;;;;;39.00;21.60;;;;;;;8.45;97.16;99965.66;5072430;28;20091;-66
2021/12/29 02:13:42;;;;;;;33.90;19.25;;;;;;;8.33;97.41;99975.69;5072421;28;20098;-66
2021/12/29 02:16:09;;;;;;;30.23;18.15;;;;;;;8.41;96.58;99981.00;5056839;28;20049;-66
2021/12/29 02:18:38;;;;;;;32.92;19.10;;;;;;;8.44;96.60;99982.50;5052334;28;20082;-66
2021/12/29 02:21:04;;;;;;;32.20;18.35;;;;;;;8.40;96.66;99981.13;5056020;28;20037;-66
2021/12/29 02:23:45;;;;;;;32.30;19.58;;;;;;;8.44;96.66;99983.34;5072912;28;20098;-66
2021/12/29 02:26:13;;;;;;;36.30;20.15;;;;;;;8.40;96.49;100000.50;5075116;28;20151;-66
2021/12/29 02:28:42;;;;;;;38.72;22.55;;;;;;;8.42;96.53;99985.34;5076661;28;20091;-66
2021/12/29 02:31:08;;;;;;;38.55;20.02;;;;;;;8.38;96.30;99989.22;5076311;28;20409;-66
2021/12/29 02:33:35;;;;;;;43.80;21.42;;;;;;;8.45;96.33;99982.34;5074838;28;20044;-66
2021/12/29 02:36:04;;;;;;;31.65;18.75;;;;;;;8.38;96.39;99996.34;5074690;28;20044;-66
2021/12/29 02:38:34;;;;;;;26.83;15.13;;;;;;;8.32;96.46;100003.06;5074802;28;20044;-66
2021/12/29 02:41:05;;;;;;;31.40;17.33;;;;;;;8.23;97.15;100010.13;5074711;28;20045;-66
2021/12/29 02:43:36;;;;;;;37.35;21.00;;;;;;;8.31;96.95;100017.25;5075578;28;20143;-66
2021/12/29 02:46:11;;;;;;;29.92;17.88;;;;;;;8.35;96.69;100021.28;5076100;28;20049;-66
2021/12/29 02:48:51;;;;;;;30.15;18.17;;;;;;;8.39;96.38;100019.16;5075693;28;20053;-65
2021/12/29 02:51:18;;;;;;;34.60;19.70;;;;;;;8.35;96.47;100025.72;5076021;28;20044;-66
2021/12/29 02:53:45;;;;;;;32.60;20.70;;;;;;;8.32;96.34;100020.75;5075741;28;20094;-66
2021/12/29 02:56:12;;;;;;;41.25;20.67;;;;;;;8.37;96.23;100021.94;5075591;28;20045;-65
2021/12/29 02:58:39;;;;;;;38.17;21.73;;;;;;;8.36;96.57;100020.28;5075445;28;20040;-66
2021/12/29 03:01:09;;;;;;;37.15;20.60;;;;;;;8.24;96.49;100025.00;5075261;28;20382;-66
2021/12/29 03:03:37;;;;;;;41.75;19.95;;;;;;;8.27;97.08;100029.97;5054659;28;20048;-66
2021/12/29 03:06:07;;;;;;;30.92;18.30;;;;;;;8.40;95.81;100037.50;5053949;28;20413;-66
2021/12/29 03:08:35;;;;;;;33.00;18.75;;;;;;;8.44;95.66;100035.38;5055561;28;20099;-66
2021/12/29 03:11:03;;;;;;;32.60;17.88;;;;;;;8.37;95.69;100042.25;5054428;28;20041;-66
2021/12/29 03:13:33;;;;;;;33.28;19.27;;;;;;;8.42;95.48;100032.06;5054103;28;20052;-66
2021/12/29 03:16:00;;;;;;;30.85;19.27;;;;;;;8.38;96.01;100042.09;5055121;28;20045;-66
2021/12/29 03:18:28;;;;;;;34.25;20.30;;;;;;;8.36;95.75;100048.53;5055373;28;20055;-66
2021/12/29 03:20:55;;;;;;;33.75;20.92;;;;;;;8.39;95.47;100049.03;5069161;28;20071;-66
2021/12/29 03:23:22;;;;;;;36.22;19.40;;;;;;;8.36;95.28;100048.53;5075163;28;20043;-66
2021/12/29 03:25:49;;;;;;;33.38;18.98;;;;;;;8.36;95.12;100056.44;5061535;28;20045;-66
2021/12/29 03:28:17;;;;;;;34.72;20.02;;;;;;;8.33;95.82;100054.09;5054919;28;20041;-66
2021/12/29 03:30:48;;;;;;;34.85;19.83;;;;;;;8.33;95.75;100065.53;5054731;28;20515;-67
2021/12/29 03:33:15;;;;;;;30.65;17.17;;;;;;;8.33;95.59;100059.41;5052214;28;20037;-68
2021/12/29 03:35:47;;;;;;;33.00;19.88;;;;;;;8.34;95.64;100067.16;5054990;28;20041;-66
2021/12/29 03:38:19;;;;;;;32.38;18.17;;;;;;;8.30;95.80;100065.00;5054160;28;20127;-66
2021/12/29 03:40:47;;;;;;;27.92;16.38;;;;;;;8.32;95.24;100071.78;5057294;28;20040;-66
2021/12/29 03:43:14;;;;;;;27.77;16.30;;;;;;;8.21;95.96;100082.63;5054101;28;20041;-67
2021/12/29 03:45:44;;;;;;;25.48;15.27;;;;;;;8.28;95.23;100075.72;5053646;28;20120;-67
2021/12/29 03:48:13;;;;;;;29.10;15.57;;;;;;;8.22;95.44;100086.91;5054709;28;20115;-67
2021/12/29 03:50:40;;;;;;;28.90;17.17;;;;;;;8.27;95.42;100092.56;5053597;28;20375;-64
2021/12/29 03:53:08;;;;;;;28.42;17.27;;;;;;;8.33;95.30;100085.81;5053706;28;20041;-66
2021/12/29 03:55:35;;;;;;;27.05;16.88;;;;;;;8.40;95.39;100100.06;5061702;28;20047;-66
2021/12/29 03:58:02;;;;;;;31.67;17.55;;;;;;;8.38;94.92;100110.78;5065639;28;20037;-66
2021/12/29 04:00:29;;;;;;;24.08;15.48;;;;;;;8.46;94.99;100104.78;5054271;28;20054;-67
2021/12/29 04:02:56;;;;;;;31.25;17.77;;;;;;;8.41;95.31;100114.97;5067882;28;20497;-66
2021/12/29 04:05:24;;;;;;;31.80;19.92;;;;;;;8.24;95.90;100119.28;5072994;28;20036;-67
2021/12/29 04:07:53;;;;;;;40.88;23.42;;;;;;;8.16;96.46;100114.78;5072636;28;20045;-66
2021/12/29 04:10:21;;;;;;;43.33;23.98;;;;;;;8.26;96.33;100115.53;5073972;28;20075;-66
2021/12/29 04:12:48;;;;;;;50.03;25.58;;;;;;;8.35;95.83;100124.34;5072963;28;20048;-66
2021/12/29 04:15:16;;;;;;;43.03;25.83;;;;;;;8.37;95.44;100132.94;5074418;28;20052;-66
2021/12/29 04:17:45;;;;;;;49.50;27.05;;;;;;;8.43;95.44;100134.16;5073676;28;20064;-67
2021/12/29 04:23:07;;;;;;;37.85;22.90;;;;;;;8.32;95.22;100145.78;5074289;28;20068;-66
2021/12/29 04:25:36;;;;;;;31.50;19.67;;;;;;;8.33;95.29;100144.81;5074121;28;20041;-67
2021/12/29 04:28:09;;;;;;;26.05;16.05;;;;;;;8.27;94.99;100154.16;5073485;28;20051;-66
2021/12/29 04:30:36;;;;;;;28.75;16.92;;;;;;;8.32;94.97;100148.44;5073852;28;20055;-66
2021/12/29 04:33:03;;;;;;;26.25;16.17;;;;;;;8.20;94.82;100147.81;5072863;28;20048;-66
2021/12/29 04:35:30;;;;;;;27.88;16.10;;;;;;;8.19;95.42;100156.75;5071201;28;20569;-66
2021/12/29 04:37:57;;;;;;;25.10;15.50;;;;;;;8.22;94.70;100166.19;5073524;28;20044;-65
2021/12/29 04:40:24;;;;;;;27.13;14.82;;;;;;;8.21;94.93;100168.00;5073585;28;20102;-66
2021/12/29 04:42:50;;;;;;;23.92;14.50;;;;;;;8.22;94.18;100176.75;5055813;28;20097;-66
2021/12/29 04:45:18;;;;;;;22.65;14.10;;;;;;;8.20;94.29;100176.06;5055022;28;20041;-66
2021/12/29 04:47:47;;;;;;;25.67;15.18;;;;;;;8.23;94.16;100179.25;5073262;28;20122;-66
2021/12/29 04:50:24;;;;;;;29.02;13.38;;;;;;;8.20;94.05;100182.19;5073708;28;20044;-66
2021/12/29 04:52:53;;;;;;;25.05;14.88;;;;;;;8.25;94.09;100179.09;5072369;28;20055;-66
2021/12/29 04:55:20;;;;;;;26.70;14.13;;;;;;;8.18;94.07;100192.06;5071839;28;20033;-66
2021/12/29 04:57:49;;;;;;;18.70;11.50;;;;;;;8.21;93.99;100196.25;5055422;28;20485;-66
2021/12/29 05:00:20;;;;;;;21.02;11.50;;;;;;;8.03;94.93;100194.41;5073018;28;20055;-65
2021/12/29 05:02:48;;;;;;;24.10;13.32;;;;;;;8.14;93.91;100189.91;5069771;28;20139;-65
2021/12/29 05:05:22;;;;;;;20.23;11.40;;;;;;;8.08;94.08;100188.69;5052117;28;20045;-66
2021/12/29 05:10:36;;;;;;;23.10;13.48;;;;;;;8.18;94.22;100196.53;5038363;28;20041;-66
2021/12/29 05:13:03;;;;;;;23.63;13.75;;;;;;;8.04;94.73;100206.66;5053098;28;20045;-65
2021/12/29 05:15:30;;;;;;;23.15;14.10;;;;;;;8.13;94.41;100212.84;5053045;28;20041;-65
2021/12/29 05:17:59;;;;;;;22.92;13.57;;;;;;;8.15;94.68;100224.09;5065141;28;20043;-65
2021/12/29 05:20:27;;;;;;;29.10;15.27;;;;;;;8.13;95.09;100219.94;5054638;28;20052;-65
2021/12/29 05:22:55;;;;;;;25.23;14.35;;;;;;;8.21;94.19;100220.03;5072316;28;20041;-66
2021/12/29 05:25:22;;;;;;;29.02;15.23;;;;;;;8.14;93.95;100225.06;5068092;28;20521;-65
2021/12/29 05:27:50;;;;;;;26.98;15.07;;;;;;;8.15;93.89;100223.25;5057295;28;20095;-66
2021/12/29 05:30:18;;;;;;;27.52;14.55;;;;;;;8.10;93.64;100229.00;5052705;28;20128;-66
2021/12/29 05:32:45;;;;;;;22.85;14.20;;;;;;;8.16;93.76;100233.66;5051212;28;20052;-66
2021/12/29 05:35:12;;;;;;;23.33;12.68;;;;;;;8.16;93.39;100246.06;5052670;28;20052;-66
2021/12/29 05:37:39;;;;;;;28.73;13.25;;;;;;;8.09;93.39;100251.09;5050985;28;20044;-66
2021/12/29 05:40:08;;;;;;;24.10;13.30;;;;;;;8.14;93.73;100245.38;5051795;28;20098;-66
2021/12/29 05:42:35;;;;;;;25.58;13.90;;;;;;;8.04;94.40;100248.94;5051569;28;20173;-66
2021/12/29 05:45:05;;;;;;;25.17;13.38;;;;;;;8.14;93.73;100251.50;5052965;28;20037;-65
2021/12/29 05:47:32;;;;;;;24.30;14.13;;;;;;;8.11;93.82;100261.53;5054041;28;20417;-65
2021/12/29 05:49:58;;;;;;;23.30;13.75;;;;;;;7.99;94.50;100255.63;5052974;28;20119;-65
2021/12/29 05:52:25;;;;;;;25.67;13.60;;;;;;;7.97;94.29;100250.50;5051695;28;20045;-66
2021/12/29 05:54:52;;;;;;;27.52;13.80;;;;;;;7.96;94.87;100248.00;5052742;28;20044;-66
2021/12/29 05:57:18;;;;;;;24.30;14.02;;;;;;;7.94;94.56;100250.78;5037185;28;20405;-65
2021/12/29 05:59:45;;;;;;;26.27;14.38;;;;;;;7.91;94.95;100242.34;5072991;28;20063;-65
2021/12/29 06:02:12;;;;;;;26.90;13.52;;;;;;;7.94;94.76;100240.22;5071580;28;20512;-66
2021/12/29 06:04:38;;;;;;;29.10;13.60;;;;;;;7.98;94.69;100256.59;5071907;28;20048;-66
2021/12/29 06:07:05;;;;;;;29.60;14.93;;;;;;;7.91;95.08;100258.19;5070179;28;20060;-65
2021/12/29 06:09:34;;;;;;;29.42;15.25;;;;;;;7.99;94.82;100260.94;5072422;28;20044;-65
2021/12/29 06:12:01;;;;;;;32.70;14.88;;;;;;;7.97;94.41;100258.44;5071843;28;20047;-66
2021/12/29 06:14:28;;;;;;;29.30;15.43;;;;;;;8.05;94.96;100255.84;5070454;28;20032;-66
2021/12/29 06:16:55;;;;;;;29.52;15.40;;;;;;;8.05;94.36;100266.41;5051150;28;20049;-65
2021/12/29 06:19:21;;;;;;;34.50;15.50;;;;;;;7.98;95.11;100268.00;5052532;28;20048;-66
2021/12/29 06:21:48;;;;;;;29.65;15.20;;;;;;;8.13;94.47;100276.25;5052374;28;20733;-65
2021/12/29 06:24:15;;;;;;;27.15;14.38;;;;;;;8.05;94.28;100276.16;5052219;28;20045;-65
2021/12/29 06:26:42;;;;;;;27.70;14.60;;;;;;;8.07;94.24;100279.50;5034374;28;20045;-65
2021/12/29 06:29:09;;;;;;;30.38;14.02;;;;;;;8.18;93.49;100279.25;5051877;28;20502;-66
2021/12/29 06:31:35;;;;;;;32.83;14.57;;;;;;;8.26;93.13;100283.81;5052263;28;20041;-66
2021/12/29 06:34:02;;;;;;;27.50;14.60;;;;;;;8.13;93.86;100283.34;5052220;28;20048;-66
2021/12/29 06:36:29;;;;;;;23.42;13.38;;;;;;;8.22;93.17;100295.66;5050804;28;20493;-65
2021/12/29 06:38:56;;;;;;;26.10;14.32;;;;;;;8.33;93.29;100299.88;5032766;28;20128;-66
2021/12/29 06:41:23;;;;;;;27.70;13.80;;;;;;;8.08;93.01;100295.19;5052237;28;20041;-65
2021/12/29 06:43:49;;;;;;;28.13;14.98;;;;;;;8.13;93.05;100307.97;5050479;28;20099;-65
2021/12/29 06:46:16;;;;;;;26.67;13.82;;;;;;;8.18;93.29;100300.41;5051894;28;20041;-65
2021/12/29 06:48:43;;;;;;;30.73;15.30;;;;;;;8.13;93.24;100305.31;5050764;28;20123;-65
2021/12/29 06:51:09;;;;;;;28.67;13.57;;;;;;;8.30;92.15;100303.69;5051020;28;20094;-65
2021/12/29 06:53:36;;;;;;;28.20;14.80;;;;;;;8.21;92.90;100309.84;5051999;28;20679;-66
2021/12/29 06:56:05;;;;;;;27.52;13.63;;;;;;;8.25;92.53;100319.16;5034144;28;20375;-65
2021/12/29 06:58:33;;;;;;;29.98;14.88;;;;;;;8.01;93.41;100325.81;5051705;28;20140;-66
2021/12/29 07:01:00;;;;;;;26.50;13.70;;;;;;;8.14;92.98;100335.22;5036632;28;20498;-65
2021/12/29 07:03:27;;;;;;;28.35;14.23;;;;;;;8.14;93.09;100335.22;5066415;28;20046;-65
2021/12/29 07:05:54;;;;;;;28.48;14.85;;;;;;;8.09;92.65;100330.34;5070763;28;20493;-66
2021/12/29 07:08:22;;;;;;;27.88;15.07;;;;;;;8.25;92.74;100330.53;5054049;28;20064;-65
2021/12/29 07:10:49;;;;;;;26.17;14.52;;;;;;;8.33;93.13;100340.38;5055530;28;20128;-66
2021/12/29 07:13:16;;;;;;;27.70;14.90;;;;;;;8.23;92.80;100339.59;5055451;28;20049;-66
2021/12/29 07:15:42;;;;;;;26.45;13.95;;;;;;;8.19;93.02;100352.28;5061279;28;20485;-66
2021/12/29 07:18:09;;;;;;;30.13;14.70;;;;;;;8.20;92.52;100353.09;5055296;28;20037;-65
2021/12/29 07:20:38;;;;;;;26.38;14.88;;;;;;;8.17;92.81;100348.97;5054395;28;20049;-65
2021/12/29 07:23:05;;;;;;;27.80;15.27;;;;;;;8.07;93.19;100342.88;5054187;28;20112;-66
2021/12/29 07:25:32;;;;;;;32.30;15.60;;;;;;;8.25;92.68;100354.31;5054813;28;20037;-65
2021/12/29 07:27:58;;;;;;;26.73;13.55;;;;;;;8.35;91.86;100353.44;5061851;28;20052;-66
2021/12/29 07:30:25;;;;;;;24.63;13.95;;;;;;;8.39;91.83;100355.63;5055010;28;20049;-65
2021/12/29 07:32:52;;;;;;;35.08;14.18;;;;;;;8.36;92.27;100363.03;5055255;28;20037;-66
2021/12/29 07:35:19;;;;;;;25.92;14.15;;;;;;;8.26;92.43;100368.38;5053077;28;20045;-66
2021/12/29 07:37:46;;;;;;;25.92;13.10;;;;;;;8.30;91.93;100361.00;5054779;28;20048;-66
2021/12/29 07:40:13;;;;;;;27.70;12.90;;;;;;;8.24;92.27;100359.75;5037189;28;20049;-66
2021/12/29 07:42:41;;;;;;;23.63;13.20;;;;;;;8.39;91.50;100360.09;5053794;28;20052;-66
2021/12/29 07:45:09;;;;;;;26.33;13.27;;;;;;;8.39;91.32;100365.38;5054693;28;20037;-66
2021/12/29 07:47:40;;;;;;;24.67;13.30;;;;;;;8.23;92.93;100373.97;5053311;28;20448;-66
2021/12/29 07:50:07;;;;;;;26.57;14.00;;;;;;;8.31;91.72;100374.03;5053785;28;20037;-65
2021/12/29 07:52:48;;;;;;;29.27;13.32;;;;;;;8.36;90.95;100385.00;5054786;28;20345;-65
2021/12/29 07:55:18;;;;;;;27.45;12.38;;;;;;;8.51;90.49;100384.53;5053565;28;20041;-65
2021/12/29 07:57:47;;;;;;;28.65;12.63;;;;;;;8.53;90.36;100394.00;5055671;28;20466;-66
2021/12/29 08:00:16;;;;;;;27.85;12.40;;;;;;;8.45;90.13;100380.66;5054624;28;20044;-66
2021/12/29 08:02:44;;;;;;;23.65;12.75;;;;;;;8.29;91.19;100383.09;5065737;28;20140;-65
2021/12/29 08:05:12;;;;;;;24.08;12.18;;;;;;;8.34;90.62;100383.50;5071196;28;20044;-65
2021/12/29 08:07:42;;;;;;;;;;;;;;;8.29;91.35;100391.03;5073710;28;20056;-65
2021/12/29 08:10:09;;;;;;;25.00;11.48;;;;;;;8.40;91.02;100396.97;5084493;28;19920;-66
2021/12/29 08:12:37;;;;;;;27.40;12.20;;;;;;;8.35;90.79;100401.00;5091181;28;20497;-66
2021/12/29 08:15:04;;;;;;;25.40;11.95;;;;;;;8.15;91.60;100402.91;5073106;28;20106;-66
2021/12/29 08:17:32;;;;;;;25.70;11.90;;;;;;;8.34;91.33;100400.19;5072716;28;20473;-66
2021/12/29 08:20:00;;;;;;;24.33;12.15;;;;;;;8.34;91.34;100409.94;5074096;28;20102;-66
2021/12/29 08:22:27;;;;;;;29.80;12.05;;;;;;;8.36;91.06;100408.78;5056299;28;20043;-66
2021/12/29 08:24:54;;;;;;;23.80;11.25;;;;;;;8.45;90.38;100407.94;5072794;28;20067;-66
2021/12/29 08:27:22;;;;;;;23.67;11.50;;;;;;;8.52;89.29;100407.34;5072910;28;20048;-66
2021/12/29 08:29:48;;;;;;;25.25;10.43;;;;;;;8.43;89.31;100409.91;5056150;28;20049;-66
2021/12/29 08:32:15;;;;;;;22.80;11.23;;;;;;;8.30;90.32;100405.91;5071869;28;20072;-65
2021/12/29 08:34:42;;;;;;;25.88;10.95;;;;;;;8.32;90.13;100417.19;5073720;28;20508;-65
2021/12/29 08:37:10;;;;;;;18.70;9.82;;;;;;;8.37;89.71;100409.63;5072295;28;20561;-66
2021/12/29 08:39:37;;;;;;;21.27;10.52;;;;;;;8.23;90.57;100405.66;5072599;28;20044;-66
2021/12/29 08:42:04;;;;;;;25.73;10.88;;;;;;;8.37;90.56;100413.09;5073596;28;20058;-65
2021/12/29 08:44:30;;;;;;;22.08;9.75;;;;;;;8.50;89.25;100415.44;5073386;28;20123;-65
2021/12/29 08:46:57;;;;;;;17.30;9.38;;;;;;;8.52;87.93;100417.94;5089272;28;20572;-65
2021/12/29 08:49:24;;;;;;;19.92;10.02;;;;;;;8.47;88.96;100414.91;5058337;28;20044;-66
2021/12/29 08:51:50;;;;;;;21.55;10.27;;;;;;;8.60;88.48;100413.56;5053330;28;20045;-65
2021/12/29 08:54:17;;;;;;;22.92;10.38;;;;;;;8.54;88.38;100421.25;5052161;28;20045;-65
2021/12/29 08:56:44;;;;;;;23.38;10.18;;;;;;;8.56;88.00;100412.19;5053445;28;20128;-65
2021/12/29 08:59:13;;;;;;;18.50;10.30;;;;;;;8.45;88.95;100409.75;5053508;28;20052;-66
2021/12/29 09:01:40;;;;;;;19.10;9.63;;;;;;;8.69;87.62;100416.28;5054301;28;20044;-66
2021/12/29 09:04:07;;;;;;;20.08;10.43;;;;;;;8.55;87.99;100413.19;5070777;28;20056;-65
2021/12/29 09:06:34;;;;;;;20.45;10.40;;;;;;;8.60;86.99;100416.22;5072850;28;20063;-65
2021/12/29 09:09:03;;;;;;;18.05;9.82;;;;;;;8.57;87.58;100410.38;5073251;28;20086;-65
2021/12/29 09:11:30;;;;;;;21.50;9.07;;;;;;;8.51;87.75;100419.72;5073309;28;20049;-65
2021/12/29 09:13:59;;;;;;;24.42;10.60;;;;;;;8.69;86.77;100419.75;5073026;28;20079;-65
2021/12/29 09:16:28;;;;;;;18.67;10.57;;;;;;;8.60;87.21;100424.16;5071666;28;20041;-65
2021/12/29 09:18:55;;;;;;;22.95;9.75;;;;;;;8.66;86.72;100425.34;5072293;28;20053;-65
2021/12/29 09:21:22;;;;;;;17.85;9.57;;;;;;;8.77;86.75;100430.44;5072315;28;20040;-65
2021/12/29 09:23:48;;;;;;;19.80;9.40;;;;;;;8.69;86.15;100432.97;5087677;28;20401;-65
2021/12/29 09:26:16;;;;;;;20.50;9.82;;;;;;;8.61;86.37;100432.91;5071692;28;20032;-65
2021/12/29 09:28:45;;;;;;;17.77;9.48;;;;;;;8.80;85.49;100434.56;5060074;28;20048;-66
2021/12/29 09:31:14;;;;;;;17.67;9.10;;;;;;;8.83;85.04;100442.22;5050798;28;20043;-66
2021/12/29 09:33:42;;;;;;;23.40;9.85;;;;;;;8.77;85.66;100441.00;5052212;28;20037;-65
2021/12/29 09:36:09;;;;;;;16.90;9.25;;;;;;;8.79;86.54;100444.31;5052690;28;20033;-65
2021/12/29 09:38:39;;;;;;;19.83;8.95;;;;;;;8.93;86.48;100439.50;5055839;28;20060;-66
2021/12/29 09:41:09;;;;;;;20.60;9.63;;;;;;;8.95;86.71;100448.09;5053505;28;20041;-66
2021/12/29 09:43:36;;;;;;;21.67;9.20;;;;;;;9.06;85.01;100447.06;5052754;28;20044;-66
2021/12/29 09:46:05;;;;;;;16.92;9.25;;;;;;;9.15;84.19;100452.28;5067909;28;20045;-66
2021/12/29 09:48:33;;;;;;;16.88;8.55;;;;;;;9.18;84.87;100451.13;5052497;28;20045;-66
2021/12/29 09:51:00;;;;;;;17.30;8.88;;;;;;;9.13;86.58;100450.75;5062938;28;20072;-66
2021/12/29 09:53:28;;;;;;;16.77;9.55;;;;;;;9.22;86.85;100453.34;5070550;28;20056;-66
2021/12/29 09:55:54;;;;;;;19.73;8.55;;;;;;;9.32;84.44;100449.78;5072134;28;20037;-65
2021/12/29 09:58:21;;;;;;;16.92;8.32;;;;;;;9.30;84.61;100451.75;5051762;28;20091;-66
2021/12/29 10:00:54;;;;;;;19.05;9.15;;;;;;;9.30;85.34;100455.22;5066745;28;20072;-65
2021/12/29 10:03:23;;;;;;;17.40;7.68;;;;;;;9.49;83.01;100453.38;5069021;28;20048;-63
2021/12/29 10:05:53;;;;;;;17.98;7.78;;;;;;;9.48;82.75;100452.56;5070903;28;20051;-62
2021/12/29 10:08:25;;;;;;;14.98;7.30;;;;;;;9.45;82.44;100447.56;5067128;28;20521;-62
2021/12/29 10:10:55;;;;;;;17.42;7.38;;;;;;;9.49;82.25;100446.25;5062343;28;20041;-62
2021/12/29 10:13:22;;;;;;;14.50;6.90;;;;;;;9.52;82.25;100440.66;5054054;28;21741;-62
2021/12/29 10:15:53;;;;;;;13.70;6.45;;;;;;;9.46;81.71;100435.13;5069572;28;20037;-62
2021/12/29 10:18:24;;;;;;;15.77;7.38;;;;;;;9.43;83.04;100433.66;5071374;28;20056;-62
2021/12/29 10:20:57;;;;;;;16.23;6.82;;;;;;;9.44;83.06;100421.22;5071931;28;20043;-62
2021/12/29 10:23:28;;;;;;;24.25;7.60;;;;;;;9.47;82.00;100424.41;5064310;28;20076;-62
2021/12/29 10:26:03;;;;;;;17.30;7.20;;;;;;;9.41;83.13;100419.72;5064950;28;20033;-62
2021/12/29 10:28:31;;;;;;;13.77;6.30;;;;;;;9.35;82.51;100422.97;5059091;28;20467;-62
2021/12/29 10:33:40;;;;;;;15.80;7.00;;;;;;;9.47;81.69;100426.22;5094905;27;20457;-62
2021/12/29 10:36:13;;;;;;;17.80;7.05;;;;;;;9.34;82.48;100413.38;5085243;28;20055;-61
2021/12/29 10:38:41;;;;;;;14.88;6.90;;;;;;;9.35;83.05;100417.69;5084127;28;20044;-63
2021/12/29 10:41:09;;;;;;;14.68;6.65;;;;;;;9.30;83.69;100410.22;5086120;28;20070;-62
2021/12/29 10:43:38;;;;;;;17.08;7.00;;;;;;;9.35;83.98;100410.59;5086434;28;20063;-63
2021/12/29 10:46:17;;;;;;;17.50;6.47;;;;;;;9.28;82.55;100416.63;5085810;28;20355;-62
2021/12/29 10:48:47;;;;;;;18.85;6.90;;;;;;;9.41;83.40;100415.25;5084985;28;20036;-62
2021/12/29 10:51:15;;;;;;;16.08;6.93;;;;;;;9.64;82.51;100400.69;5086202;28;20040;-62
2021/12/29 10:53:42;;;;;;;19.80;7.32;;;;;;;9.76;83.22;100402.91;5074790;28;20036;-62
2021/12/29 10:56:25;;;;;;;25.55;7.18;;;;;;;10.17;80.74;100418.19;5087017;28;20799;-62
2021/12/29 10:58:53;;;;;;;21.42;6.20;;;;;;;10.64;78.01;100412.41;5069590;28;20045;-62
2021/12/29 11:01:22;;;;;;;23.83;8.57;;;;;;;10.86;78.63;100407.44;5078016;28;20036;-62
2021/12/29 11:03:52;;;;;;;17.80;6.10;;;;;;;10.86;78.42;100405.66;5084099;28;20075;-62
2021/12/29 11:06:22;;;;;;;19.00;6.65;;;;;;;11.35;75.48;100396.88;5091029;28;20480;-63
2021/12/29 11:08:53;;;;;;;24.55;6.80;;;;;;;11.65;73.83;100389.19;5096272;28;20445;-62
2021/12/29 11:11:30;;;;;;;17.95;6.53;;;;;;;12.13;73.17;100389.22;5086232;28;20048;-63
2021/12/29 11:14:17;;;;;;;17.67;6.28;;;;;;;12.24;71.72;100381.69;5068574;28;20059;-63
2021/12/29 11:16:53;;;;;;;21.23;6.80;;;;;;;12.06;72.56;100391.72;5086833;28;20040;-62
2021/12/29 11:19:20;;;;;;;17.10;6.10;;;;;;;11.94;72.61;100390.47;5087274;28;20107;-63
2021/12/29 11:21:47;;;;;;;15.02;6.40;;;;;;;11.67;73.45;100382.69;5086943;28;20048;-63
2021/12/29 11:24:20;;;;;;;18.38;6.25;;;;;;;11.28;74.71;100382.59;5075538;28;20037;-63
2021/12/29 11:26:49;;;;;;;17.30;6.60;;;;;;;10.97;76.12;100393.03;5101799;28;20132;-63
2021/12/29 11:29:18;;;;;;;19.17;6.38;;;;;;;10.88;75.96;100398.34;5084763;28;20501;-63
2021/12/29 11:31:50;;;;;;;18.48;6.75;;;;;;;10.72;77.07;100408.94;5080797;28;20473;-67
2021/12/29 11:34:24;;;;;;;12.55;5.85;;;;;;;10.65;76.41;100414.06;5087266;28;20036;-67
2021/12/29 11:37:08;;;;;;;16.17;6.68;;;;;;;10.71;77.09;100412.56;5073944;28;20400;-67